Time;durP1;ratioP1;P1;durP2;ratioP2;P2;SDS_P1;SDS_P2;PMS_P1;PMS_P2;Temp;Humidity;BMP_temperature;BMP_pressure;BME280_temperature;BME280_humidity;BME280_pressure;Samples;Min_cycle;Max_cycle;Signal;HPM_P1;HPM_P2
2023/06/09 00:01:13;;;;;;;7.72;5.10;;;;;;;;;;6140915;23;20621;-93
2023/06/09 00:04:18;;;;;;;7.60;4.75;;;;;;;;;;6140396;23;20157;-93
2023/06/09 00:07:26;;;;;;;9.60;4.97;;;;;;;;;;6125116;23;20205;-94
2023/06/09 00:10:33;;;;;;;13.43;4.97;;;;;;;;;;6140867;23;20190;-92
2023/06/09 00:13:38;;;;;;;11.23;5.05;;;;;;;;;;6125652;23;20508;-93
2023/06/09 00:16:45;;;;;;;7.18;5.00;;;;;;;;;;6140811;23;20231;-91
2023/06/09 00:19:52;;;;;;;9.70;5.57;;;;;;;;;;6141695;23;20153;-94
2023/06/09 00:22:58;;;;;;;12.02;5.55;;;;;;;;;;6141799;23;20158;-93
2023/06/09 00:26:05;;;;;;;9.30;5.18;;;;;;;;;;6140052;23;20662;-92
2023/06/09 00:29:10;;;;;;;13.35;5.63;;;;;;;;;;6140672;23;20221;-93
2023/06/09 00:32:16;;;;;;;7.53;5.38;;;;;;;;;;6141832;23;20177;-93
2023/06/09 00:35:22;;;;;;;8.93;4.90;;;;;;;;;;6142114;23;20150;-93
2023/06/09 00:38:27;;;;;;;8.32;5.47;;;;;;;;;;6125392;23;20214;-94
2023/06/09 00:41:38;;;;;;;9.82;5.43;;;;;;;;;;6141463;23;20160;-94
2023/06/09 00:44:42;;;;;;;7.75;5.40;;;;;;;;;;6141024;23;20161;-94
2023/06/09 00:47:47;;;;;;;9.60;5.65;;;;;;;;;;6140639;23;20197;-94
2023/06/09 00:50:53;;;;;;;8.88;5.72;;;;;;;;;;6142554;23;20148;-92
2023/06/09 00:54:03;;;;;;;9.88;5.60;;;;;;;;;;6142205;23;20169;-94
2023/06/09 00:57:12;;;;;;;6.85;5.18;;;;;;;;;;6138908;23;20177;-94
2023/06/09 01:00:20;;;;;;;9.07;5.35;;;;;;;;;;6140393;23;20149;-95
2023/06/09 01:03:26;;;;;;;11.52;5.50;;;;;;;;;;6140102;23;20170;-92
2023/06/09 08:14:50;;;;;;;5.65;3.55;;;;;;;;;;6137407;23;20197;-91
2023/06/09 08:17:59;;;;;;;6.25;3.60;;;;;;;;;;6143809;23;20173;-92
2023/06/09 08:21:06;;;;;;;7.65;3.60;;;;;;;;;;6147210;23;20165;-91
2023/06/09 08:24:13;;;;;;;6.22;3.80;;;;;;;;;;6127714;23;20173;-90
2023/06/09 08:27:22;;;;;;;4.20;3.55;;;;;;;;;;6147650;23;20157;-92
2023/06/09 08:30:43;;;;;;;8.73;3.70;;;;;;;;;;6145837;23;20224;-91
2023/06/09 12:59:26;;;;;;;6.03;3.20;;;;;;;;;;6134104;22;2255506;-93
2023/06/09 13:02:39;;;;;;;6.07;3.53;;;;;;;;;;6308356;22;20172;-93
2023/06/09 13:05:44;;;;;;;8.70;4.32;;;;;;;;;;6306806;22;20164;-93
2023/06/09 13:08:50;;;;;;;23.13;5.53;;;;;;;;;;6311198;22;20217;-92
2023/06/09 22:51:48;;;;;;;51.03;18.45;;;;;;;;;;6249120;22;20210;-93
2023/06/09 22:54:54;;;;;;;48.63;18.10;;;;;;;;;;6275106;22;20166;-93
2023/06/09 22:57:59;;;;;;;36.25;15.40;;;;;;;;;;6275550;22;20174;-93
2023/06/09 23:01:05;;;;;;;42.45;14.93;;;;;;;;;;6273949;22;20169;-92
2023/06/09 23:04:11;;;;;;;56.33;24.52;;;;;;;;;;6276365;22;20153;-92
2023/06/09 23:07:21;;;;;;;73.18;27.20;;;;;;;;;;6276217;22;20172;-93
2023/06/09 23:10:26;;;;;;;38.30;16.45;;;;;;;;;;6259855;22;20591;-90
2023/06/09 23:13:32;;;;;;;47.90;20.10;;;;;;;;;;6277381;22;20149;-92
2023/06/09 23:16:37;;;;;;;20.33;9.50;;;;;;;;;;6276186;22;20193;-93
2023/06/09 23:19:43;;;;;;;25.20;10.85;;;;;;;;;;6274956;22;20177;-93
2023/06/09 23:22:51;;;;;;;61.90;27.40;;;;;;;;;;6274850;22;20184;-93
2023/06/09 23:25:56;;;;;;;30.55;15.20;;;;;;;;;;6276063;22;20150;-93
2023/06/09 23:29:02;;;;;;;42.17;16.58;;;;;;;;;;6276776;22;20154;-93
2023/06/09 23:32:11;;;;;;;24.48;12.70;;;;;;;;;;6277483;22;20154;-93
2023/06/09 23:35:17;;;;;;;25.08;13.45;;;;;;;;;;6275841;22;20158;-94
2023/06/09 23:38:25;;;;;;;19.85;10.48;;;;;;;;;;6275432;22;20166;-94
2023/06/09 23:41:30;;;;;;;29.27;10.05;;;;;;;;;;6275757;22;20197;-92
2023/06/09 23:44:36;;;;;;;20.27;10.15;;;;;;;;;;6275047;22;20216;-93
2023/06/09 23:47:41;;;;;;;26.67;9.05;;;;;;;;;;6274308;22;20165;-95
2023/06/09 23:50:46;;;;;;;27.15;11.05;;;;;;;;;;6272357;22;20687;-92
2023/06/09 23:53:53;;;;;;;31.00;14.57;;;;;;;;;;6274939;22;20162;-92
2023/06/09 23:57:02;;;;;;;29.65;12.18;;;;;;;;;;6274356;22;20197;-94
